Portada
METAR-TAF:

METAR-TAF

Aeroports :

Vineyard Haven, Massachusetts, Estats Units d'Amèrica

latitud: 41-23-32N, longitud: 070-37-00W, altitud: 20 m

Observació

L'informe es va fer fa 27 minuts, a les 15:53 UTC
Vent 15 kt del Nord/Nord-Est amb ràfegues de 22 kt
Temperatura 23°C
Humitat 73%
Pressió 1016 hPa
Visibilitat: 16.1 km
Escasses núvols a una alçada de 2200 ft
Cel cobert a una alçada de 3100 ft

METAR: KMVY 151553Z 03015G22KT 10SM FEW022 OVC031 23/18 A3001 RMK AO2 SLP162 T02330178 $

Hora: 12:20 (16:20 UTC)


TAF: manca

Observacions i pronòstics meteorològics de més de 4000 aeroports (METAR i TAF).

Les estacions disponibles són els punts grocs i vermells al mapa.

Posi el ratolí al punt desitjat per veure el nom de l'estació.

Feu clic per veure les observacions i els pronòstics meteorològics.

Per canviar el mapa: feu clic els botons verds amb una creu de color negre per apropar; al botó verd amb un guió per allunyar la imatge; o en les fletxes verdes per a mapes adjacents.


METAR-TAF: